Time;durP1;ratioP1;P1;durP2;ratioP2;P2;SDS_P1;SDS_P2;PMS_P1;PMS_P2;Temp;Humidity;BMP_temperature;BMP_pressure;BME280_temperature;BME280_humidity;BME280_pressure;Samples;Min_cycle;Max_cycle;Signal;HPM_P1;HPM_P2
2022/06/13 00:02:09;;;;;;;;;;;13.50;99.90;;;;;;5081672;28;20614;-68
2022/06/13 00:04:36;;;;;;;;;;;13.50;99.90;;;;;;5082608;28;20106;-67
2022/06/13 00:07:02;;;;;;;;;;;13.50;99.90;;;;;;5076877;28;19932;-67
2022/06/13 00:09:31;;;;;;;;;;;13.50;99.90;;;;;;5086273;28;20095;-67
2022/06/13 00:11:58;;;;;;;;;;;13.50;99.90;;;;;;5082994;28;20042;-67
2022/06/13 00:14:24;;;;;;;;;;;13.40;99.90;;;;;;5086459;28;19974;-67
2022/06/13 00:16:51;;;;;;;;;;;13.40;99.90;;;;;;5078963;28;20473;-67
2022/06/13 00:19:18;;;;;;;;;;;13.40;99.90;;;;;;5086027;28;20362;-67
2022/06/13 00:21:45;;;;;;;;;;;13.40;99.90;;;;;;5086604;28;19967;-67
2022/06/13 00:24:11;;;;;;;;;;;13.40;99.90;;;;;;5082664;28;19968;-67
2022/06/13 00:26:39;;;;;;;;;;;13.30;99.90;;;;;;5084890;28;19928;-67
2022/06/13 00:29:06;;;;;;;;;;;13.40;99.90;;;;;;5076327;28;20007;-67
2022/06/13 00:31:33;;;;;;;;;;;13.30;99.90;;;;;;5080337;28;20035;-67
2022/06/13 00:34:00;;;;;;;;;;;13.40;99.90;;;;;;5080582;28;20414;-67
2022/06/13 00:36:26;;;;;;;;;;;13.30;99.90;;;;;;5082042;28;20015;-67
2022/06/13 00:38:55;;;;;;;;;;;13.40;99.90;;;;;;5078046;28;20161;-68
2022/06/13 00:41:23;;;;;;;;;;;13.30;99.90;;;;;;5076801;28;19956;-66
2022/06/13 00:43:51;;;;;;;;;;;13.40;99.90;;;;;;5078966;28;19931;-67
2022/06/13 00:46:21;;;;;;;;;;;13.30;99.90;;;;;;5080515;28;20031;-67
2022/06/13 00:48:48;;;;;;;;;;;13.30;99.90;;;;;;5076868;28;19924;-67
2022/06/13 00:51:15;;;;;;;;;;;13.30;99.90;;;;;;5077302;28;20471;-67
2022/06/13 00:53:43;;;;;;;;;;;13.40;99.90;;;;;;5078894;28;20445;-67
2022/06/13 00:56:11;;;;;;;;;;;13.40;99.90;;;;;;5072246;28;19931;-67
2022/06/13 00:58:40;;;;;;;;;;;13.40;99.90;;;;;;5082816;28;20005;-67
2022/06/13 01:01:08;;;;;;;;;;;13.40;99.90;;;;;;5081076;28;19924;-68
2022/06/13 01:03:36;;;;;;;;;;;13.40;99.90;;;;;;5076815;28;20023;-67
2022/06/13 01:06:05;;;;;;;;;;;13.40;99.90;;;;;;5081715;28;19924;-67
2022/06/13 01:08:33;;;;;;;;;;;13.40;99.90;;;;;;5078475;28;20483;-68
2022/06/13 01:11:16;;;;;;;;;;;13.50;99.90;;;;;;5085472;28;19924;-68
2022/06/13 01:14:01;;;;;;;;;;;13.50;99.90;;;;;;5073001;28;19924;-69
2022/06/13 01:16:34;;;;;;;;;;;13.50;99.90;;;;;;5076943;28;19964;-68
2022/06/13 01:19:25;;;;;;;;;;;13.60;99.90;;;;;;5085427;28;20015;-68
2022/06/13 01:21:58;;;;;;;;;;;13.60;99.90;;;;;;5080477;28;20495;-68
2022/06/13 01:24:44;;;;;;;;;;;13.50;99.90;;;;;;5079097;28;20009;-68
2022/06/13 01:27:26;;;;;;;;;;;13.50;99.90;;;;;;5080428;28;21448;-70
2022/06/13 01:30:06;;;;;;;;;;;13.50;99.90;;;;;;5083327;28;20398;-69
2022/06/13 01:32:42;;;;;;;;;;;13.50;99.90;;;;;;5076359;28;19955;-68
2022/06/13 01:35:16;;;;;;;;;;;13.50;99.90;;;;;;5080406;28;19924;-68
2022/06/13 01:37:49;;;;;;;;;;;13.50;99.90;;;;;;5081274;28;20017;-68
2022/06/13 01:40:23;;;;;;;;;;;13.40;99.90;;;;;;5080221;28;19924;-68
2022/06/13 01:42:57;;;;;;;;;;;13.40;99.90;;;;;;5081749;28;20399;-68
2022/06/13 01:45:27;;;;;;;;;;;13.30;99.90;;;;;;5083447;28;19936;-69
2022/06/13 01:47:58;;;;;;;;;;;13.30;99.90;;;;;;5075798;28;20439;-68
2022/06/13 01:50:26;;;;;;;;;;;13.20;99.90;;;;;;5072937;28;19924;-68
2022/06/13 01:52:58;;;;;;;;;;;13.30;99.90;;;;;;5083206;28;19967;-69
2022/06/13 01:55:27;;;;;;;;;;;13.30;99.90;;;;;;5082534;28;19928;-68
2022/06/13 01:57:58;;;;;;;;;;;13.30;99.90;;;;;;5083239;28;19970;-68
2022/06/13 02:00:27;;;;;;;;;;;13.40;99.90;;;;;;5086967;28;20027;-67
2022/06/13 02:03:00;;;;;;;;;;;13.40;99.90;;;;;;5077679;28;19928;-68
2022/06/13 02:05:31;;;;;;;;;;;13.40;99.90;;;;;;5081220;28;20379;-68
2022/06/13 02:07:59;;;;;;;;;;;13.40;99.90;;;;;;5082975;28;19947;-67
2022/06/13 02:10:29;;;;;;;;;;;13.40;99.90;;;;;;5083934;28;20360;-67
2022/06/13 02:13:01;;;;;;;;;;;13.50;99.90;;;;;;5080082;28;20638;-67
2022/06/13 02:15:29;;;;;;;;;;;13.40;99.90;;;;;;5083346;28;20023;-67
2022/06/13 02:18:00;;;;;;;;;;;13.40;99.90;;;;;;5082890;28;20042;-67
2022/06/13 02:20:29;;;;;;;;;;;13.40;99.90;;;;;;5083013;28;19924;-67
2022/06/13 02:22:57;;;;;;;;;;;13.40;99.90;;;;;;5084616;28;20015;-68
2022/06/13 02:25:28;;;;;;;;;;;13.40;99.90;;;;;;5082259;28;19933;-67
2022/06/13 02:27:57;;;;;;;;;;;13.30;99.90;;;;;;5085347;28;19931;-67
2022/06/13 02:30:27;;;;;;;;;;;13.30;99.90;;;;;;5087371;28;19989;-67
2022/06/13 02:32:55;;;;;;;;;;;13.30;99.90;;;;;;5081729;28;20003;-67
2022/06/13 02:35:24;;;;;;;;;;;13.30;99.90;;;;;;5086475;28;19939;-67
2022/06/13 02:37:53;;;;;;;;;;;13.30;99.90;;;;;;5084660;28;20451;-67
2022/06/13 02:40:22;;;;;;;;;;;13.30;99.90;;;;;;5085063;28;19938;-67
2022/06/13 02:42:51;;;;;;;;;;;13.30;99.90;;;;;;5080643;28;20335;-68
2022/06/13 02:45:22;;;;;;;;;;;13.30;99.90;;;;;;5081308;28;19932;-68
2022/06/13 02:47:53;;;;;;;;;;;13.20;99.90;;;;;;5082628;28;20672;-67
2022/06/13 02:50:24;;;;;;;;;;;13.20;99.90;;;;;;5084675;28;19928;-66
2022/06/13 02:52:57;;;;;;;;;;;13.20;99.90;;;;;;5081588;28;19999;-67
2022/06/13 02:55:24;;;;;;;;;;;13.20;99.90;;;;;;5082777;28;20015;-67
2022/06/13 02:58:00;;;;;;;;;;;13.20;99.90;;;;;;5083128;28;20855;-67
2022/06/13 03:00:31;;;;;;;;;;;13.20;99.90;;;;;;5082359;28;20441;-67
2022/06/13 03:03:05;;;;;;;;;;;13.20;99.90;;;;;;5084963;28;20007;-68
2022/06/13 03:05:49;;;;;;;;;;;13.20;99.90;;;;;;5084037;28;19924;-67
2022/06/13 03:08:25;;;;;;;;;;;13.20;99.90;;;;;;5064987;28;20478;-67
2022/06/13 03:10:56;;;;;;;;;;;13.20;99.90;;;;;;5075997;28;19928;-68
2022/06/13 03:13:27;;;;;;;;;;;13.20;99.90;;;;;;5081796;28;20019;-68
2022/06/13 03:15:56;;;;;;;;;;;13.10;99.90;;;;;;5082323;28;19986;-68
2022/06/13 03:18:26;;;;;;;;;;;13.20;99.90;;;;;;5080986;28;20020;-68
2022/06/13 03:20:55;;;;;;;;;;;13.10;99.90;;;;;;5079720;28;19932;-67
2022/06/13 03:23:26;;;;;;;;;;;13.10;99.90;;;;;;5078773;28;19938;-67
2022/06/13 03:25:54;;;;;;;;;;;13.10;99.90;;;;;;5080945;28;19967;-69
2022/06/13 03:28:25;;;;;;;;;;;13.10;99.90;;;;;;5079270;28;19930;-67
2022/06/13 03:30:53;;;;;;;;;;;13.10;99.90;;;;;;5082457;28;20039;-67
2022/06/13 03:33:41;;;;;;;;;;;13.10;99.90;;;;;;5081667;28;19924;-68
2022/06/13 03:36:10;;;;;;;;;;;13.00;99.90;;;;;;5081629;28;20015;-67
2022/06/13 03:38:43;;;;;;;;;;;13.00;99.90;;;;;;5080589;28;19959;-66
2022/06/13 03:41:13;;;;;;;;;;;13.10;99.90;;;;;;5091235;28;19956;-67
2022/06/13 03:43:41;;;;;;;;;;;13.10;99.90;;;;;;5079004;28;20026;-67
2022/06/13 03:46:10;;;;;;;;;;;13.20;99.90;;;;;;5080927;28;19924;-67
2022/06/13 03:48:44;;;;;;;;;;;13.20;99.90;;;;;;5082492;28;20031;-66
2022/06/13 03:51:14;;;;;;;;;;;13.30;99.90;;;;;;5088490;28;19930;-67
2022/06/13 03:53:45;;;;;;;;;;;13.30;99.90;;;;;;5082403;28;20031;-67
2022/06/13 03:56:15;;;;;;;;;;;13.40;99.90;;;;;;5082017;28;19930;-67
2022/06/13 03:58:45;;;;;;;;;;;13.40;99.90;;;;;;5083761;28;20591;-66
2022/06/13 04:01:14;;;;;;;;;;;13.50;99.90;;;;;;5078088;28;21617;-67
2022/06/13 04:03:41;;;;;;;;;;;13.60;99.90;;;;;;5079844;28;20091;-67
2022/06/13 04:06:23;;;;;;;;;;;13.60;99.90;;;;;;5082259;28;19928;-67
2022/06/13 04:08:51;;;;;;;;;;;13.60;99.90;;;;;;5083115;28;19939;-67
2022/06/13 04:11:22;;;;;;;;;;;13.70;99.90;;;;;;5080143;28;20410;-67
2022/06/13 04:13:55;;;;;;;;;;;13.70;99.90;;;;;;5081648;28;19928;-68
2022/06/13 04:16:27;;;;;;;;;;;13.70;99.90;;;;;;5083386;28;19928;-67
2022/06/13 04:19:15;;;;;;;;;;;13.70;99.90;;;;;;5079673;28;19955;-67
2022/06/13 04:21:48;;;;;;;;;;;13.60;99.90;;;;;;5079444;28;20467;-68
2022/06/13 04:24:20;;;;;;;;;;;13.70;99.90;;;;;;5079168;28;19939;-68
2022/06/13 04:26:52;;;;;;;;;;;13.70;99.90;;;;;;5077501;28;19928;-68
2022/06/13 04:29:22;;;;;;;;;;;13.70;99.90;;;;;;5080455;28;20279;-68
2022/06/13 04:31:50;;;;;;;;;;;13.80;99.90;;;;;;5079045;28;20077;-68
2022/06/13 04:34:18;;;;;;;;;;;13.90;99.90;;;;;;5080857;28;19924;-68
2022/06/13 04:36:45;;;;;;;;;;;14.00;99.90;;;;;;5080875;28;20341;-68
2022/06/13 04:39:14;;;;;;;;;;;14.10;99.90;;;;;;5078193;28;20011;-68
2022/06/13 04:41:44;;;;;;;;;;;14.20;99.90;;;;;;5075994;28;20015;-68
2022/06/13 04:44:14;;;;;;;;;;;14.20;99.90;;;;;;5076722;28;20030;-66
2022/06/13 04:46:42;;;;;;;;;;;14.30;99.90;;;;;;5080231;28;19931;-65
2022/06/13 04:49:17;;;;;;;;;;;14.40;99.90;;;;;;5075981;28;20364;-67
2022/06/13 04:51:44;;;;;;;;;;;14.40;99.90;;;;;;5079895;28;19928;-67
2022/06/13 04:54:13;;;;;;;;;;;14.40;99.90;;;;;;5080734;28;19928;-67
2022/06/13 04:56:40;;;;;;;;;;;14.50;99.90;;;;;;5080766;28;19934;-67
2022/06/13 04:59:12;;;;;;;;;;;14.60;99.90;;;;;;5079383;28;19932;-67
2022/06/13 05:01:43;;;;;;;;;;;14.80;99.90;;;;;;5087502;28;20014;-67
2022/06/13 05:04:13;;;;;;;;;;;14.80;99.90;;;;;;5079281;28;20095;-65
2022/06/13 05:06:41;;;;;;;;;;;14.90;99.90;;;;;;5083279;28;19966;-67
2022/06/13 05:09:14;;;;;;;;;;;15.00;99.90;;;;;;5080563;28;19924;-66
2022/06/13 05:11:45;;;;;;;;;;;15.10;99.90;;;;;;5081027;28;19970;-67
2022/06/13 05:14:15;;;;;;;;;;;15.20;99.90;;;;;;5085334;28;22003;-67
2022/06/13 05:16:48;;;;;;;;;;;15.40;99.90;;;;;;5078738;28;19978;-66
2022/06/13 05:19:31;;;;;;;;;;;15.40;99.90;;;;;;5084187;28;19924;-66
2022/06/13 05:22:03;;;;;;;;;;;15.50;99.90;;;;;;5083035;28;19928;-65
2022/06/13 05:24:40;;;;;;;;;;;15.60;99.90;;;;;;5085093;28;19971;-65
2022/06/13 05:27:08;;;;;;;;;;;15.70;99.90;;;;;;5077473;28;20027;-66
2022/06/13 05:29:36;;;;;;;;;;;15.70;99.90;;;;;;5085681;28;20022;-65
2022/06/13 05:32:03;;;;;;;;;;;15.80;99.90;;;;;;5078114;28;19960;-65
2022/06/13 05:34:34;;;;;;;;;;;15.70;99.90;;;;;;5083962;28;21024;-64
2022/06/13 05:37:01;;;;;;;;;;;15.70;99.90;;;;;;5081682;28;19974;-65
2022/06/13 05:39:28;;;;;;;;;;;15.70;99.90;;;;;;5086369;28;19971;-66
2022/06/13 05:41:55;;;;;;;;;;;15.90;99.90;;;;;;5084792;28;19959;-66
2022/06/13 05:44:21;;;;;;;;;;;16.00;99.90;;;;;;5077947;28;19955;-65
2022/06/13 05:46:49;;;;;;;;;;;16.20;99.90;;;;;;5084522;28;19928;-65
2022/06/13 05:49:17;;;;;;;;;;;16.20;99.90;;;;;;5084662;28;19961;-67
2022/06/13 05:51:46;;;;;;;;;;;16.30;99.90;;;;;;5073791;28;19925;-66
2022/06/13 05:54:13;;;;;;;;;;;16.40;99.90;;;;;;5082417;28;19940;-66
2022/06/13 05:56:40;;;;;;;;;;;16.40;99.90;;;;;;5090774;28;20023;-66
2022/06/13 05:59:07;;;;;;;;;;;16.40;99.90;;;;;;5080455;28;20018;-66
2022/06/13 06:01:35;;;;;;;;;;;17.10;99.90;;;;;;5085772;28;19924;-66
2022/06/13 06:04:04;;;;;;;;;;;17.40;99.90;;;;;;5086334;28;20394;-66
2022/06/13 06:06:31;;;;;;;;;;;18.40;99.90;;;;;;5087418;28;20302;-66
2022/06/13 06:08:58;;;;;;;;;;;20.10;98.40;;;;;;5088539;28;19949;-66
2022/06/13 06:11:26;;;;;;;;;;;21.30;94.00;;;;;;5086368;28;19967;-66
2022/06/13 06:13:53;;;;;;;;;;;22.00;89.00;;;;;;5071918;28;19924;-66
2022/06/13 06:16:21;;;;;;;;;;;22.50;80.50;;;;;;5075543;28;20014;-66
2022/06/13 06:18:48;;;;;;;;;;;23.10;72.00;;;;;;5086171;28;19923;-66
2022/06/13 06:21:16;;;;;;;;;;;22.30;63.90;;;;;;5087929;28;20015;-66
2022/06/13 06:23:43;;;;;;;;;;;20.80;67.70;;;;;;5082979;28;19923;-65
2022/06/13 06:26:11;;;;;;;;;;;20.40;72.30;;;;;;5097602;28;19986;-64
2022/06/13 06:28:38;;;;;;;;;;;21.20;70.70;;;;;;5082755;28;19991;-66
2022/06/13 06:31:05;;;;;;;;;;;22.10;63.80;;;;;;5093673;28;19977;-66
2022/06/13 06:33:32;;;;;;;;;;;20.70;67.40;;;;;;5090532;28;19955;-66
2022/06/13 06:35:59;;;;;;;;;;;19.40;70.80;;;;;;5086546;28;19924;-66
2022/06/13 06:38:27;;;;;;;;;;;18.90;72.80;;;;;;5087327;28;19935;-66
2022/06/13 06:40:54;;;;;;;;;;;18.60;75.10;;;;;;5087839;28;19924;-66
2022/06/13 06:43:21;;;;;;;;;;;18.80;78.00;;;;;;5091797;28;19924;-66
2022/06/13 06:45:48;;;;;;;;;;;20.50;71.10;;;;;;5091189;28;20098;-65
2022/06/13 06:48:16;;;;;;;;;;;20.60;67.00;;;;;;5091789;28;19976;-65
2022/06/13 06:50:45;;;;;;;;;;;21.30;65.60;;;;;;5093708;28;20143;-66
2022/06/13 06:53:13;;;;;;;;;;;21.40;64.40;;;;;;5096341;28;20372;-66
2022/06/13 07:01:10;;;;;;;;;;;22.50;55.40;;;;;;5089775;28;20408;-66
2022/06/13 07:03:37;;;;;;;;;;;22.70;52.00;;;;;;5090905;28;19963;-67
2022/06/13 07:06:04;;;;;;;;;;;22.90;53.00;;;;;;5083891;28;20293;-66
2022/06/13 07:08:31;;;;;;;;;;;23.30;49.90;;;;;;5079916;28;20283;-66
2022/06/13 07:11:53;;;;;;;;;;;23.80;48.10;;;;;;5074995;28;19932;-66
2022/06/13 07:13:48;;;;;;;;;;;24.50;45.70;;;;;;5081350;28;19952;-67
2022/06/13 07:16:15;;;;;;;;;;;24.30;42.10;;;;;;5083917;28;19976;-66
2022/06/13 07:18:45;;;;;;;;;;;24.50;41.80;;;;;;5087401;28;20006;-66
2022/06/13 07:21:12;;;;;;;;;;;24.70;40.30;;;;;;5084339;28;20400;-66
2022/06/13 07:23:38;;;;;;;;;;;24.80;39.40;;;;;;5092528;28;20329;-66
2022/06/13 07:26:07;;;;;;;;;;;24.90;37.20;;;;;;5095017;28;19934;-66
2022/06/13 07:28:33;;;;;;;;;;;23.60;38.50;;;;;;5087972;28;20022;-66
2022/06/13 07:31:00;;;;;;;;;;;23.00;41.30;;;;;;5080277;28;19924;-66
2022/06/13 07:33:27;;;;;;;;;;;23.10;41.10;;;;;;5085844;28;20015;-66
2022/06/13 07:35:53;;;;;;;;;;;22.70;41.60;;;;;;5084053;28;20516;-66
2022/06/13 07:38:20;;;;;;;;;;;22.20;42.60;;;;;;5083565;28;20015;-66
2022/06/13 07:40:48;;;;;;;;;;;21.90;43.40;;;;;;5077083;28;20306;-67
2022/06/13 07:43:22;;;;;;;;;;;21.80;41.70;;;;;;5079601;28;19982;-67
2022/06/13 07:45:51;;;;;;;;;;;21.30;41.60;;;;;;5078379;28;20367;-66
2022/06/13 07:48:18;;;;;;;;;;;20.40;43.60;;;;;;5089708;28;20007;-67
2022/06/13 07:50:45;;;;;;;;;;;19.90;45.20;;;;;;5090849;28;19930;-67
2022/06/13 07:53:11;;;;;;;;;;;20.60;44.90;;;;;;5090518;28;20052;-67
2022/06/13 07:55:39;;;;;;;;;;;22.10;42.40;;;;;;5078710;28;20007;-66
2022/06/13 07:58:06;;;;;;;;;;;23.40;38.70;;;;;;5080770;28;19954;-66
2022/06/13 08:00:35;;;;;;;;;;;22.70;36.80;;;;;;5086570;28;20379;-66
2022/06/13 08:03:02;;;;;;;;;;;21.70;38.70;;;;;;5092217;28;19928;-66
2022/06/13 08:05:29;;;;;;;;;;;20.90;41.40;;;;;;5077282;28;20015;-66
2022/06/13 08:07:56;;;;;;;;;;;22.20;40.70;;;;;;5073300;28;19968;-65
2022/06/13 08:10:23;;;;;;;;;;;21.80;40.00;;;;;;5082235;28;19931;-67
2022/06/13 08:12:50;;;;;;;;;;;21.10;42.10;;;;;;5085089;28;19925;-65
2022/06/13 08:15:17;;;;;;;;;;;21.10;44.40;;;;;;5083766;28;20433;-65
2022/06/13 08:17:45;;;;;;;;;;;22.90;41.00;;;;;;5074213;28;20772;-65
2022/06/13 08:20:12;;;;;;;;;;;24.20;37.00;;;;;;5108377;28;19971;-66
2022/06/13 08:22:41;;;;;;;;;;;25.60;33.00;;;;;;5088344;28;19931;-66
2022/06/13 08:25:08;;;;;;;;;;;26.30;30.80;;;;;;5079807;28;20422;-67
2022/06/13 08:27:35;;;;;;;;;;;27.00;28.20;;;;;;5085665;28;20107;-66
2022/06/13 08:30:02;;;;;;;;;;;25.80;29.00;;;;;;5092524;28;19928;-67
2022/06/13 08:32:28;;;;;;;;;;;24.40;28.00;;;;;;5083459;28;20459;-66
2022/06/13 08:34:56;;;;;;;;;;;23.00;29.20;;;;;;5079141;28;20023;-67
2022/06/13 08:37:23;;;;;;;;;;;21.80;30.50;;;;;;5074333;28;20007;-66
2022/06/13 08:39:50;;;;;;;;;;;21.00;32.50;;;;;;5084940;28;19928;-66
2022/06/13 08:42:20;;;;;;;;;;;22.30;32.30;;;;;;5083399;28;20233;-66
2022/06/13 08:44:53;;;;;;;;;;;24.00;29.60;;;;;;5080083;28;19924;-67
2022/06/13 08:47:27;;;;;;;;;;;25.00;28.60;;;;;;5075072;28;19925;-66
2022/06/13 08:50:01;;;;;;;;;;;25.60;27.10;;;;;;5072964;28;20456;-63
2022/06/13 08:52:29;;;;;;;;;;;23.60;29.10;;;;;;5088727;28;19964;-68
2022/06/13 08:55:02;;;;;;;;;;;25.10;25.40;;;;;;5094459;28;20042;-65
2022/06/13 08:57:31;;;;;;;;;;;26.20;23.60;;;;;;5088370;28;20367;-67
2022/06/13 09:00:05;;;;;;;;;;;27.00;21.20;;;;;;5087792;28;19986;-67
2022/06/13 09:02:37;;;;;;;;;;;26.90;20.40;;;;;;5083618;28;19928;-67
2022/06/13 09:05:07;;;;;;;;;;;26.10;21.30;;;;;;5090517;28;19925;-67
2022/06/13 09:07:36;;;;;;;;;;;26.40;20.70;;;;;;5081352;28;20395;-67
2022/06/13 09:10:05;;;;;;;;;;;25.10;23.30;;;;;;5077490;28;20011;-67
2022/06/13 09:12:37;;;;;;;;;;;22.40;27.00;;;;;;5084295;28;19967;-66
2022/06/13 09:15:05;;;;;;;;;;;21.50;28.70;;;;;;5089295;28;20379;-67
2022/06/13 09:17:37;;;;;;;;;;;20.70;30.00;;;;;;5085418;28;19975;-67
2022/06/13 09:20:10;;;;;;;;;;;20.70;29.90;;;;;;5102278;28;19930;-67
2022/06/13 09:22:40;;;;;;;;;;;20.50;30.90;;;;;;5079895;28;19967;-67
2022/06/13 09:25:09;;;;;;;;;;;20.20;31.00;;;;;;5075311;28;19962;-67
2022/06/13 09:27:37;;;;;;;;;;;19.40;32.50;;;;;;5079385;28;19928;-67
2022/06/13 09:30:05;;;;;;;;;;;18.90;34.50;;;;;;5096996;28;20010;-66
2022/06/13 09:32:34;;;;;;;;;;;19.00;35.20;;;;;;5087563;28;20024;-67
2022/06/13 09:35:03;;;;;;;;;;;19.10;35.00;;;;;;5086012;28;19963;-67
2022/06/13 09:37:34;;;;;;;;;;;19.70;34.90;;;;;;5077260;28;20417;-67
2022/06/13 09:40:01;;;;;;;;;;;21.40;34.00;;;;;;5087587;28;19931;-67
2022/06/13 09:42:35;;;;;;;;;;;22.90;30.00;;;;;;5087907;28;20030;-66
2022/06/13 09:45:06;;;;;;;;;;;23.00;28.70;;;;;;5081538;28;20011;-67
2022/06/13 09:47:37;;;;;;;;;;;23.00;28.30;;;;;;5077876;28;20484;-66
2022/06/13 09:50:08;;;;;;;;;;;22.60;28.50;;;;;;5089167;28;20437;-67
2022/06/13 09:52:41;;;;;;;;;;;23.30;26.30;;;;;;5084146;28;19928;-67
2022/06/13 09:55:14;;;;;;;;;;;24.30;25.00;;;;;;5081580;28;20030;-66
2022/06/13 09:57:47;;;;;;;;;;;24.50;24.30;;;;;;5079196;28;19939;-67
2022/06/13 10:00:16;;;;;;;;;;;23.30;26.30;;;;;;5091245;28;19931;-67
2022/06/13 10:02:46;;;;;;;;;;;22.60;27.00;;;;;;5085787;28;19928;-67
2022/06/13 10:05:18;;;;;;;;;;;23.50;24.60;;;;;;5090011;28;19935;-67
2022/06/13 10:07:50;;;;;;;;;;;24.20;24.70;;;;;;5086198;28;19931;-67
2022/06/13 10:10:21;;;;;;;;;;;24.90;23.70;;;;;;5088369;28;19971;-66
2022/06/13 10:12:54;;;;;;;;;;;24.10;24.60;;;;;;5081173;28;19924;-67
2022/06/13 10:15:26;;;;;;;;;;;23.10;26.20;;;;;;5086386;28;19924;-66
2022/06/13 10:18:00;;;;;;;;;;;21.70;27.20;;;;;;5091929;28;19990;-67
2022/06/13 10:20:32;;;;;;;;;;;20.90;27.60;;;;;;5093038;28;19924;-67
2022/06/13 10:23:06;;;;;;;;;;;20.50;28.80;;;;;;5084419;28;20011;-67
2022/06/13 10:25:41;;;;;;;;;;;20.20;29.70;;;;;;5087699;28;19936;-67
2022/06/13 10:28:14;;;;;;;;;;;20.50;31.00;;;;;;5083454;28;19960;-67
2022/06/13 10:30:46;;;;;;;;;;;21.00;30.00;;;;;;5103549;28;19965;-67
2022/06/13 10:33:21;;;;;;;;;;;21.10;30.00;;;;;;5082275;28;20352;-68
2022/06/13 10:35:49;;;;;;;;;;;21.50;27.00;;;;;;5090817;28;19973;-66
2022/06/13 10:38:26;;;;;;;;;;;21.30;28.80;;;;;;5081356;28;19924;-67
2022/06/13 10:40:53;;;;;;;;;;;21.30;29.50;;;;;;5088045;28;19935;-66
2022/06/13 10:43:20;;;;;;;;;;;21.30;30.60;;;;;;5081806;28;20292;-67
2022/06/13 10:45:47;;;;;;;;;;;21.10;31.30;;;;;;5091193;28;19978;-66
2022/06/13 10:48:17;;;;;;;;;;;20.60;31.20;;;;;;5091662;28;19963;-67
2022/06/13 10:50:46;;;;;;;;;;;20.60;30.40;;;;;;5089397;28;19925;-67
2022/06/13 10:53:16;;;;;;;;;;;20.50;31.40;;;;;;5082021;28;19934;-67
2022/06/13 10:55:47;;;;;;;;;;;20.40;31.30;;;;;;5089649;28;20011;-64
2022/06/13 10:58:17;;;;;;;;;;;20.20;29.60;;;;;;5089178;28;19962;-64
2022/06/13 11:01:02;;;;;;;;;;;20.00;31.50;;;;;;5082529;28;19924;-65
2022/06/13 11:03:29;;;;;;;;;;;20.20;32.20;;;;;;5081089;28;19924;-64
2022/06/13 11:05:57;;;;;;;;;;;20.70;31.00;;;;;;5091432;28;19928;-65
2022/06/13 11:08:24;;;;;;;;;;;20.80;28.60;;;;;;5096053;28;20055;-65
2022/06/13 11:10:56;;;;;;;;;;;20.70;29.20;;;;;;5098300;28;19928;-66
2022/06/13 11:13:25;;;;;;;;;;;20.60;29.80;;;;;;5087512;28;19977;-66
2022/06/13 11:24:14;;;;;;;;;;;20.50;28.80;;;;;;5084081;28;19931;-66
2022/06/13 11:29:28;;;;;;;;;;;20.80;28.10;;;;;;5091495;28;20012;-67
2022/06/13 11:31:56;;;;;;;;;;;20.90;27.80;;;;;;5088071;28;19969;-67
2022/06/13 11:34:26;;;;;;;;;;;21.00;27.90;;;;;;5087653;28;19955;-67
2022/06/13 11:37:00;;;;;;;;;;;21.40;26.30;;;;;;5072495;28;19930;-67
2022/06/13 11:39:35;;;;;;;;;;;21.40;27.40;;;;;;5084534;28;19956;-68
2022/06/13 11:42:03;;;;;;;;;;;21.50;27.10;;;;;;5072031;28;20430;-66
2022/06/13 11:44:31;;;;;;;;;;;20.90;28.10;;;;;;5091052;28;20016;-67
2022/06/13 11:46:59;;;;;;;;;;;20.60;28.60;;;;;;5077182;28;20427;-67
2022/06/13 11:49:35;;;;;;;;;;;20.60;29.60;;;;;;5089425;28;20011;-67
2022/06/13 11:52:05;;;;;;;;;;;20.70;28.90;;;;;;5082997;28;19924;-67
2022/06/13 11:54:34;;;;;;;;;;;20.90;28.70;;;;;;5082070;28;20006;-67
2022/06/13 11:57:18;;;;;;;;;;;21.00;29.10;;;;;;5089989;28;19971;-67
2022/06/13 11:59:49;;;;;;;;;;;21.40;25.90;;;;;;5091875;28;20399;-67
2022/06/13 12:02:19;;;;;;;;;;;21.20;28.50;;;;;;5083152;28;19924;-67
2022/06/13 12:04:46;;;;;;;;;;;21.00;29.00;;;;;;5094326;28;19924;-67
2022/06/13 12:07:21;;;;;;;;;;;20.80;28.80;;;;;;5090677;28;19933;-67
2022/06/13 12:09:52;;;;;;;;;;;20.80;28.60;;;;;;5089059;28;19974;-66
2022/06/13 12:12:20;;;;;;;;;;;20.70;28.10;;;;;;5084652;28;20011;-67
2022/06/13 12:14:47;;;;;;;;;;;20.80;28.70;;;;;;5083850;28;19986;-67
2022/06/13 12:17:17;;;;;;;;;;;21.00;27.70;;;;;;5082189;28;19954;-66
2022/06/13 12:19:50;;;;;;;;;;;21.10;26.80;;;;;;5086550;28;19925;-66
2022/06/13 12:22:18;;;;;;;;;;;21.10;27.00;;;;;;5081987;28;19928;-69
2022/06/13 12:24:50;;;;;;;;;;;21.20;27.30;;;;;;5089099;28;20313;-69
2022/06/13 12:27:24;;;;;;;;;;;21.10;24.50;;;;;;5089787;28;19932;-69
2022/06/13 12:30:03;;;;;;;;;;;21.40;27.70;;;;;;5083250;28;19924;-69
2022/06/13 12:32:31;;;;;;;;;;;20.70;28.10;;;;;;5097123;28;19946;-69
2022/06/13 12:35:03;;;;;;;;;;;21.20;27.20;;;;;;5075757;28;19963;-70
2022/06/13 12:37:35;;;;;;;;;;;21.40;27.00;;;;;;5075509;28;19932;-70
2022/06/13 12:40:11;;;;;;;;;;;21.40;27.30;;;;;;5071785;28;19970;-68
2022/06/13 12:42:43;;;;;;;;;;;20.40;28.40;;;;;;5072233;28;19987;-69
2022/06/13 12:45:25;;;;;;;;;;;20.60;28.60;;;;;;5090686;28;19932;-71
2022/06/13 12:48:03;;;;;;;;;;;20.80;27.10;;;;;;5086924;28;19924;-69
2022/06/13 12:50:43;;;;;;;;;;;20.70;28.00;;;;;;5095118;28;19930;-69
2022/06/13 12:53:18;;;;;;;;;;;21.10;27.50;;;;;;5079455;28;19971;-69
2022/06/13 12:55:49;;;;;;;;;;;21.60;27.20;;;;;;5076222;28;20055;-70
2022/06/13 12:58:28;;;;;;;;;;;21.70;26.10;;;;;;5087597;28;19928;-68
2022/06/13 13:00:57;;;;;;;;;;;21.20;25.20;;;;;;5088619;28;20394;-69
2022/06/13 13:03:38;;;;;;;;;;;21.00;26.20;;;;;;5086049;28;19924;-68
2022/06/13 13:06:10;;;;;;;;;;;20.40;26.80;;;;;;5074683;28;20375;-68
2022/06/13 13:08:45;;;;;;;;;;;20.00;27.30;;;;;;5085379;28;20019;-68
2022/06/13 13:11:23;;;;;;;;;;;20.40;28.20;;;;;;5088246;28;20292;-68
2022/06/13 13:13:55;;;;;;;;;;;20.60;27.30;;;;;;5080172;28;19924;-68
2022/06/13 13:16:26;;;;;;;;;;;20.90;26.70;;;;;;5084780;28;19928;-68
2022/06/13 13:18:58;;;;;;;;;;;20.10;26.30;;;;;;5082197;28;20027;-69
2022/06/13 13:21:29;;;;;;;;;;;20.40;27.20;;;;;;5082451;28;20409;-68
2022/06/13 13:24:05;;;;;;;;;;;21.10;25.30;;;;;;5085213;28;19977;-69
2022/06/13 13:26:37;;;;;;;;;;;21.40;25.20;;;;;;5093311;28;19925;-69
2022/06/13 13:29:11;;;;;;;;;;;21.00;23.60;;;;;;5082157;28;19976;-69
2022/06/13 13:31:40;;;;;;;;;;;20.80;24.80;;;;;;5082227;28;19975;-68
2022/06/13 13:34:16;;;;;;;;;;;21.20;23.60;;;;;;5089758;28;20256;-69
2022/06/13 13:36:46;;;;;;;;;;;21.00;22.90;;;;;;5073602;28;19932;-69
2022/06/13 13:39:14;;;;;;;;;;;20.60;24.20;;;;;;5086155;28;20391;-69
2022/06/13 13:41:44;;;;;;;;;;;20.60;24.90;;;;;;5081673;28;19927;-68
2022/06/13 13:44:15;;;;;;;;;;;19.80;24.50;;;;;;5091731;28;19924;-69
2022/06/13 13:46:46;;;;;;;;;;;20.20;25.40;;;;;;5087993;28;20039;-70
2022/06/13 13:49:15;;;;;;;;;;;20.70;25.90;;;;;;5087038;28;20378;-69
2022/06/13 13:51:44;;;;;;;;;;;21.00;26.00;;;;;;5095588;28;19924;-68
2022/06/13 13:54:14;;;;;;;;;;;20.70;24.90;;;;;;5087218;28;19924;-70
2022/06/13 13:56:44;;;;;;;;;;;20.70;24.80;;;;;;5062686;28;19924;-69
2022/06/13 13:59:14;;;;;;;;;;;20.50;25.90;;;;;;5090622;28;20018;-69
2022/06/13 14:01:48;;;;;;;;;;;21.10;25.20;;;;;;5099060;28;19931;-69
2022/06/13 14:04:24;;;;;;;;;;;20.20;26.50;;;;;;5077139;28;19940;-69
2022/06/13 14:06:52;;;;;;;;;;;20.20;25.10;;;;;;5084642;28;19924;-69
2022/06/13 14:09:20;;;;;;;;;;;20.30;25.30;;;;;;5080476;28;19924;-69
2022/06/13 14:11:59;;;;;;;;;;;20.90;24.30;;;;;;5081060;28;20445;-69
2022/06/13 14:14:29;;;;;;;;;;;21.00;25.10;;;;;;5089637;28;19924;-71
2022/06/13 14:16:56;;;;;;;;;;;21.50;24.40;;;;;;5083048;28;19989;-70
2022/06/13 14:19:25;;;;;;;;;;;21.30;24.70;;;;;;5073953;28;20003;-68
2022/06/13 14:22:16;;;;;;;;;;;21.50;23.60;;;;;;5086605;28;20076;-69
2022/06/13 14:24:57;;;;;;;;;;;21.10;22.20;;;;;;5064360;28;19924;-68
2022/06/13 14:27:24;;;;;;;;;;;21.20;23.60;;;;;;5078981;28;19931;-70
2022/06/13 14:31:03;;;;;;;;;;;21.40;23.00;;;;;;5075150;28;20360;-69
2022/06/13 14:32:39;;;;;;;;;;;21.40;22.50;;;;;;5084691;28;20378;-69
2022/06/13 14:35:11;;;;;;;;;;;21.80;23.90;;;;;;5087876;28;19994;-70
2022/06/13 14:38:02;;;;;;;;;;;21.70;21.60;;;;;;5083374;28;20011;-69
2022/06/13 14:40:31;;;;;;;;;;;21.80;22.10;;;;;;5080930;28;19935;-70
2022/06/13 14:43:00;;;;;;;;;;;21.70;21.60;;;;;;5084867;28;20015;-69
2022/06/13 14:45:37;;;;;;;;;;;20.90;22.20;;;;;;5090671;28;19928;-68
2022/06/13 14:48:19;;;;;;;;;;;21.10;22.60;;;;;;5085245;28;20381;-69
2022/06/13 14:50:47;;;;;;;;;;;21.50;22.10;;;;;;5071625;28;20007;-69
2022/06/13 14:53:29;;;;;;;;;;;21.40;21.60;;;;;;5070714;28;19924;-68